M I D A S
Marine Information and Data Acquisition System
Tripno 1520 of the Zeeleeuw from 2008-07-16 06:56:36 to 2008-07-16 11:30:06
Back to CruiseResearch ActivitiesStationsMapUnderway DataData graphs

EquipmentUnitsComment
TimeDGPSUTC
LatitudeDGPSDM.mWGS84
LongitudeDGPSDM.mWGS84
HeadingGyrodeg 
SOGDGPSknotsSpeed over ground
COGDGPSdegCourse over ground
DepthEcho soundermeters200 kHz
Missing or incorrect values are displayed as -999
Navigation data collected by the RV Zeeleeuw from 2008-07-16 06:49:13 to 2008-07-16 11:42:08
                                                                                    Next 1000 lines
Time Latitude Longitude Heading SOG COG Depth
2008-07-16 06:49:23 51°13.623 2°56.047 126.5 0.1 22 -999
2008-07-16 06:49:28 51°13.623 2°56.048 126.2 -999 66 -999
2008-07-16 06:49:33 51°13.623 2°56.048 125.5 0.1 182 -999
2008-07-16 06:49:38 51°13.623 2°56.048 125.2 0.1 33 -999
2008-07-16 06:49:43 51°13.623 2°56.048 125 -999 217 -999
2008-07-16 06:49:48 51°13.623 2°56.048 124.9 -999 205 -999
2008-07-16 06:49:53 51°13.623 2°56.048 124.9 -999 283 -999
2008-07-16 06:49:58 51°13.623 2°56.047 124.9 -999 268 -999
2008-07-16 06:50:03 51°13.623 2°56.047 125 -999 252 -999
2008-07-16 06:50:08 51°13.622 2°56.047 125.3 -999 76 -999
2008-07-16 06:50:13 51°13.623 2°56.047 125.4 -999 343 6.1
2008-07-16 06:50:18 51°13.623 2°56.047 125.4 -999 224 -999
2008-07-16 06:50:23 51°13.623 2°56.048 125.4 -999 295 -999
2008-07-16 06:50:28 51°13.623 2°56.048 125.4 -999 254 -999
2008-07-16 06:50:33 51°13.623 2°56.048 125.4 -999 214 -999
2008-07-16 06:50:38 51°13.623 2°56.048 125.5 -999 8 -999
2008-07-16 06:50:43 51°13.623 2°56.048 125.5 -999 159 -999
2008-07-16 06:50:48 51°13.623 2°56.048 125.5 -999 203 -999
2008-07-16 06:50:53 51°13.624 2°56.048 125.5 -999 231 -999
2008-07-16 06:50:58 51°13.623 2°56.048 125.5 -999 171 -999
2008-07-16 06:51:03 51°13.623 2°56.048 125.5 -999 154 -999
2008-07-16 06:51:08 51°13.623 2°56.048 125.5 -999 137 -999
2008-07-16 06:51:13 51°13.622 2°56.047 125.5 -999 208 -999
2008-07-16 06:51:18 51°13.622 2°56.047 125.5 -999 211 -999
2008-07-16 06:51:23 51°13.622 2°56.047 125.5 -999 171 -999
2008-07-16 06:51:28 51°13.623 2°56.047 125.5 -999 204 -999
2008-07-16 06:51:33 51°13.623 2°56.048 125.5 -999 228 6.1
2008-07-16 06:51:38 51°13.623 2°56.048 125.5 -999 215 -999
2008-07-16 06:51:43 51°13.623 2°56.048 125.5 -999 275 -999
2008-07-16 06:51:48 51°13.624 2°56.048 125.5 -999 71 -999
2008-07-16 06:51:53 51°13.624 2°56.049 125.5 -999 335 -999
2008-07-16 06:51:58 51°13.624 2°56.049 125.5 -999 330 -999
2008-07-16 06:52:03 51°13.624 2°56.049 125.5 -999 122 -999
2008-07-16 06:52:08 51°13.623 2°56.048 125.5 -999 284 6.3
2008-07-16 06:52:13 51°13.622 2°56.047 125.5 -999 232 6.3
2008-07-16 06:52:18 51°13.622 2°56.047 125.5 -999 187 -999
2008-07-16 06:52:23 51°13.622 2°56.047 125.5 -999 184 -999
2008-07-16 06:52:28 51°13.622 2°56.047 125.5 -999 100 -999
2008-07-16 06:52:33 51°13.622 2°56.047 125.5 -999 208 -999
2008-07-16 06:52:38 51°13.622 2°56.047 125.6 -999 227 6.3
2008-07-16 06:52:43 51°13.623 2°56.048 125.6 -999 217 6.3
2008-07-16 06:52:48 51°13.623 2°56.048 125.6 -999 240 6.3
2008-07-16 06:52:53 51°13.623 2°56.048 125.6 -999 223 -999
2008-07-16 06:52:58 51°13.623 2°56.048 125.6 -999 133 -999
2008-07-16 06:53:03 51°13.623 2°56.048 125.6 -999 147 -999
2008-07-16 06:53:08 51°13.623 2°56.048 125.6 -999 26 -999
2008-07-16 06:53:13 51°13.623 2°56.048 125.6 -999 156 -999
2008-07-16 06:53:18 51°13.623 2°56.048 125.6 -999 282 -999
2008-07-16 06:53:23 51°13.623 2°56.048 125.6 -999 230 6.1
2008-07-16 06:53:28 51°13.623 2°56.048 125.6 -999 242 6.1
2008-07-16 06:53:33 51°13.623 2°56.048 125.6 -999 274 -999
2008-07-16 06:53:38 51°13.623 2°56.048 125.6 -999 139 6.3
2008-07-16 06:53:43 51°13.623 2°56.049 125.6 -999 175 6.3
2008-07-16 06:53:48 51°13.623 2°56.048 125.6 -999 295 -999
2008-07-16 06:53:53 51°13.623 2°56.048 125.6 -999 11 -999
2008-07-16 06:53:58 51°13.622 2°56.048 125.6 -999 125 6.5
2008-07-16 06:54:03 51°13.622 2°56.048 125.6 -999 197 -999
2008-07-16 06:54:08 51°13.622 2°56.048 125.6 -999 272 6.5
2008-07-16 06:54:13 51°13.622 2°56.048 125.6 -999 129 -999
2008-07-16 06:54:18 51°13.623 2°56.048 125.6 -999 196 6.3
2008-07-16 06:54:23 51°13.623 2°56.048 125.6 -999 198 -999
2008-07-16 06:54:28 51°13.623 2°56.048 125.6 -999 209 -999
2008-07-16 06:54:33 51°13.623 2°56.048 125.6 -999 264 -999
2008-07-16 06:54:38 51°13.623 2°56.048 125.6 -999 160 -999
2008-07-16 06:54:43 51°13.623 2°56.048 125.6 -999 201 -999
2008-07-16 06:54:48 51°13.623 2°56.048 125.6 -999 214 -999
2008-07-16 06:54:53 51°13.623 2°56.048 125.6 -999 340 6.3
2008-07-16 06:54:58 51°13.623 2°56.048 125.6 -999 261 -999
2008-07-16 06:55:03 51°13.623 2°56.048 125.6 0.1 237 -999
2008-07-16 06:55:08 51°13.623 2°56.047 125.9 0.1 247 -999
2008-07-16 06:55:13 51°13.623 2°56.047 126.5 -999 314 -999
2008-07-16 06:55:18 51°13.623 2°56.047 126.8 -999 220 -999
2008-07-16 06:55:23 51°13.623 2°56.048 126.6 0.1 142 -999
2008-07-16 06:55:28 51°13.623 2°56.048 125.8 0.1 118 -999
2008-07-16 06:55:33 51°13.622 2°56.048 124.5 0.1 95 -999
2008-07-16 06:55:38 51°13.622 2°56.048 122.7 0.2 190 -999
2008-07-16 06:55:43 51°13.622 2°56.048 120.9 -999 177 6.3
2008-07-16 06:55:48 51°13.622 2°56.048 119.5 0.1 193 -999
2008-07-16 06:55:53 51°13.622 2°56.048 117.9 0.1 190 -999
2008-07-16 06:55:58 51°13.622 2°56.048 116.6 0.1 193 -999
2008-07-16 06:56:03 51°13.622 2°56.048 114.9 0.1 191 -999
2008-07-16 06:56:08 51°13.621 2°56.048 113.3 0.1 186 -999
2008-07-16 06:56:13 51°13.621 2°56.047 111.8 0.2 262 -999
2008-07-16 06:56:18 51°13.622 2°56.046 110.5 0.6 286 -999
2008-07-16 06:56:23 51°13.622 2°56.044 110.1 0.9 284 -999
2008-07-16 06:56:28 51°13.622 2°56.042 110.1 1.2 286 -999
2008-07-16 06:56:33 51°13.623 2°56.038 110.6 1.7 290 -999
2008-07-16 06:56:38 51°13.624 2°56.034 111.4 2.1 291 -999
2008-07-16 06:56:43 51°13.625 2°56.029 112 2.4 294 -999
2008-07-16 06:56:48 51°13.627 2°56.024 112.8 2.7 294 -999
2008-07-16 06:56:53 51°13.628 2°56.018 113.6 2.8 295 -999
2008-07-16 06:56:58 51°13.63 2°56.012 114.5 3 296 -999
2008-07-16 06:57:03 51°13.632 2°56.006 115.3 3.1 297 -999
2008-07-16 06:57:08 51°13.634 2°56 115.9 3.2 296 -999
2008-07-16 06:57:13 51°13.636 2°55.993 116 3.4 296 -999
2008-07-16 06:57:18 51°13.638 2°55.985 116 3.6 295 -999
2008-07-16 06:57:23 51°13.64 2°55.978 115.9 3.7 294 -999
2008-07-16 06:57:28 51°13.643 2°55.97 115.7 3.9 293 -999
2008-07-16 06:57:33 51°13.645 2°55.962 115.6 4.1 293 -999
2008-07-16 06:57:38 51°13.647 2°55.953 115.6 4.2 292 -999
2008-07-16 06:57:43 51°13.649 2°55.944 115.9 4.3 292 -999
2008-07-16 06:57:48 51°13.652 2°55.936 116.6 4.4 294 -999
2008-07-16 06:57:53 51°13.655 2°55.927 117.5 4.5 295 -999
2008-07-16 06:57:58 51°13.657 2°55.918 118.8 4.6 296 -999
2008-07-16 06:58:03 51°13.66 2°55.908 120 4.6 297 -999
2008-07-16 06:58:08 51°13.664 2°55.899 121.8 4.7 299 -999
2008-07-16 06:58:13 51°13.667 2°55.89 123.9 4.7 300 -999
2008-07-16 06:58:18 51°13.67 2°55.881 125 4.8 302 -999
2008-07-16 06:58:23 51°13.674 2°55.873 125.5 4.6 302 -999
2008-07-16 06:58:28 51°13.677 2°55.865 125.8 4.3 302 -999
2008-07-16 06:58:33 51°13.68 2°55.857 126 4.1 302 -999
2008-07-16 06:58:38 51°13.683 2°55.85 126.3 4 303 -999
2008-07-16 06:58:43 51°13.686 2°55.843 126.6 4 303 9.2
2008-07-16 06:58:48 51°13.689 2°55.835 127 4 304 9.3
2008-07-16 06:58:53 51°13.692 2°55.828 127.6 4 304 -999
2008-07-16 06:58:58 51°13.696 2°55.821 128.6 4 306 -999
2008-07-16 06:59:03 51°13.699 2°55.814 129.6 4 306 -999
2008-07-16 06:59:08 51°13.702 2°55.807 130.9 3.9 308 -999
2008-07-16 06:59:13 51°13.706 2°55.801 132.5 3.6 309 -999
2008-07-16 06:59:18 51°13.709 2°55.795 134.9 3.4 311 10.8
2008-07-16 06:59:23 51°13.711 2°55.79 136.9 3.1 312 10.6
2008-07-16 06:59:28 51°13.714 2°55.786 137.7 2.8 314 10.6
2008-07-16 06:59:33 51°13.716 2°55.782 138.4 2.4 313 10.6
2008-07-16 06:59:38 51°13.718 2°55.779 139.3 2 315 10.6
2008-07-16 06:59:43 51°13.72 2°55.776 139.6 1.8 313 10.5
2008-07-16 06:59:48 51°13.722 2°55.773 139.3 1.8 318 10.6
2008-07-16 06:59:53 51°13.724 2°55.77 139.2 1.9 315 10.5
2008-07-16 06:59:58 51°13.726 2°55.767 139.7 2.2 321 10.8
2008-07-16 07:00:03 51°13.729 2°55.763 140.8 2.5 319 -999
2008-07-16 07:00:08 51°13.732 2°55.76 140.5 2.8 321 -999
2008-07-16 07:00:13 51°13.735 2°55.755 139.5 3.1 319 -999
2008-07-16 07:00:18 51°13.738 2°55.75 138.5 3.4 319 -999
2008-07-16 07:00:23 51°13.742 2°55.745 137.6 3.6 318 -999
2008-07-16 07:00:28 51°13.746 2°55.739 136.7 3.8 317 -999
2008-07-16 07:00:33 51°13.75 2°55.733 136 4 316 -999
2008-07-16 07:00:38 51°13.754 2°55.727 135.5 4.2 315 -999
2008-07-16 07:00:43 51°13.759 2°55.72 135.1 4.4 316 -999
2008-07-16 07:00:48 51°13.763 2°55.713 135.2 4.5 315 -999
2008-07-16 07:00:53 51°13.768 2°55.706 135.6 4.7 316 -999
2008-07-16 07:00:58 51°13.773 2°55.699 136.1 4.8 316 -999
2008-07-16 07:01:03 51°13.778 2°55.691 136.5 5 316 -999
2008-07-16 07:01:08 51°13.783 2°55.683 136.8 5.1 316 -999
2008-07-16 07:01:13 51°13.788 2°55.675 137.4 5.1 316 -999
2008-07-16 07:01:18 51°13.793 2°55.667 138.4 5.1 317 -999
2008-07-16 07:01:23 51°13.798 2°55.66 139.3 5.1 318 -999
2008-07-16 07:01:28 51°13.803 2°55.652 140.5 5.1 318 -999
2008-07-16 07:01:33 51°13.809 2°55.645 141.9 5.1 320 -999
2008-07-16 07:01:38 51°13.814 2°55.638 143.6 5 322 -999
2008-07-16 07:01:43 51°13.819 2°55.632 146 4.8 323 -999
2008-07-16 07:01:48 51°13.825 2°55.626 148.5 4.7 326 -999
2008-07-16 07:01:53 51°13.83 2°55.621 151 4.6 329 -999
2008-07-16 07:01:58 51°13.836 2°55.616 153.5 4.5 330 -999
2008-07-16 07:02:03 51°13.841 2°55.611 155.5 4.5 331 -999
2008-07-16 07:02:08 51°13.847 2°55.607 156.7 4.5 332 -999
2008-07-16 07:02:13 51°13.852 2°55.602 157.6 4.6 333 -999
2008-07-16 07:02:18 51°13.858 2°55.598 159.1 4.7 335 -999
2008-07-16 07:02:23 51°13.864 2°55.594 161.9 4.7 338 -999
2008-07-16 07:02:28 51°13.87 2°55.59 165.4 4.8 341 -999
2008-07-16 07:02:33 51°13.877 2°55.588 169.6 4.8 346 -999
2008-07-16 07:02:38 51°13.883 2°55.586 174.2 4.7 351 -999
2008-07-16 07:02:43 51°13.889 2°55.585 178.6 4.3 354 -999
2008-07-16 07:02:48 51°13.895 2°55.585 182.1 4.1 359 -999
2008-07-16 07:02:53 51°13.901 2°55.585 185.5 3.9 2 -999
2008-07-16 07:02:58 51°13.906 2°55.586 188.8 3.8 5 -999
2008-07-16 07:03:03 51°13.911 2°55.587 192.1 3.7 9 -999
2008-07-16 07:03:08 51°13.916 2°55.589 194.8 3.7 12 -999
2008-07-16 07:03:13 51°13.921 2°55.591 198 3.6 15 -999
2008-07-16 07:03:18 51°13.925 2°55.594 201.7 3.6 18 -999
2008-07-16 07:03:23 51°13.93 2°55.596 204.5 3.5 21 -999
2008-07-16 07:03:28 51°13.934 2°55.6 207 3.5 23 -999
2008-07-16 07:03:33 51°13.938 2°55.603 209.7 3.2 25 -999
2008-07-16 07:03:38 51°13.942 2°55.606 211.8 3 26 -999
2008-07-16 07:03:43 51°13.945 2°55.609 213.5 2.7 29 -999
2008-07-16 07:03:48 51°13.948 2°55.611 215.6 2.3 30 -999
2008-07-16 07:03:53 51°13.95 2°55.614 217.4 1.9 30 10.8
2008-07-16 07:03:58 51°13.952 2°55.615 219.2 1.4 31 11.4
2008-07-16 07:04:03 51°13.953 2°55.616 221.4 1 26 11.5
2008-07-16 07:04:08 51°13.954 2°55.616 224.1 0.6 23 11.6
2008-07-16 07:04:13 51°13.955 2°55.616 227.2 0.3 349 11.4
2008-07-16 07:04:18 51°13.955 2°55.615 230.2 0.3 290 11.3
2008-07-16 07:04:23 51°13.955 2°55.614 234.3 0.6 266 11.4
2008-07-16 07:04:28 51°13.955 2°55.612 240.1 0.9 259 11.5
2008-07-16 07:04:33 51°13.954 2°55.61 244.2 1.2 263 11.4
2008-07-16 07:04:38 51°13.954 2°55.606 249.6 1.6 262 -999
2008-07-16 07:04:43 51°13.954 2°55.602 256.6 2 268 10.9
2008-07-16 07:04:48 51°13.954 2°55.597 261.6 2.3 275 10.8
2008-07-16 07:04:53 51°13.955 2°55.591 268.4 2.6 281 11
2008-07-16 07:04:58 51°13.956 2°55.585 275.4 2.8 287 10.9
2008-07-16 07:05:03 51°13.958 2°55.579 282.6 3 293 10.9
2008-07-16 07:05:08 51°13.96 2°55.573 289.8 3.2 299 11
2008-07-16 07:05:13 51°13.963 2°55.566 296.8 3.4 305 10.9
2008-07-16 07:05:18 51°13.966 2°55.56 303.6 3.6 311 11
2008-07-16 07:05:23 51°13.97 2°55.555 310.4 3.9 316 10.8
2008-07-16 07:05:28 51°13.975 2°55.549 317.3 4.3 322 10.8
2008-07-16 07:05:33 51°13.98 2°55.542 323.6 4.9 323 10.9
2008-07-16 07:05:38 51°13.986 2°55.536 325.7 5.5 325 10.9
2008-07-16 07:05:43 51°13.993 2°55.528 326.6 6.1 326 10.9
2008-07-16 07:05:48 51°14.001 2°55.52 327.5 6.5 328 10.9
2008-07-16 07:05:53 51°14.009 2°55.512 329.6 7 329 11
2008-07-16 07:05:58 51°14.018 2°55.504 330.2 7.3 328 11
2008-07-16 07:06:03 51°14.027 2°55.495 330 7.7 329 11
2008-07-16 07:06:08 51°14.037 2°55.486 330.4 8 330 -999
2008-07-16 07:06:13 51°14.046 2°55.477 331.2 8.2 330 10.9
2008-07-16 07:06:18 51°14.056 2°55.467 331.1 8.4 329 10.8
2008-07-16 07:06:23 51°14.067 2°55.458 331 8.7 330 10.8
2008-07-16 07:06:28 51°14.078 2°55.449 331.7 8.8 331 10.8
2008-07-16 07:06:33 51°14.088 2°55.438 331.9 9 330 10.8
2008-07-16 07:06:38 51°14.099 2°55.428 331.7 9.1 331 10.7
2008-07-16 07:06:43 51°14.11 2°55.418 332 9.2 331 10.7
2008-07-16 07:06:48 51°14.122 2°55.408 332.3 9.3 331 10.7
2008-07-16 07:06:53 51°14.133 2°55.398 332.3 9.4 330 10.7
2008-07-16 07:06:58 51°14.144 2°55.387 332 9.5 330 -999
2008-07-16 07:07:03 51°14.156 2°55.376 331.8 9.7 329 10.7
2008-07-16 07:07:08 51°14.167 2°55.364 330.2 9.8 327 10.7
2008-07-16 07:07:13 51°14.179 2°55.352 329.7 9.9 328 10.8
2008-07-16 07:07:18 51°14.19 2°55.34 329.4 10 325 10.6
2008-07-16 07:07:23 51°14.201 2°55.327 328.1 10 324 10.7
2008-07-16 07:07:28 51°14.212 2°55.313 325.9 10.1 321 10.4
2008-07-16 07:07:33 51°14.224 2°55.298 323.8 10.2 321 10.2
2008-07-16 07:07:38 51°14.235 2°55.284 323.4 10.3 321 10.7
2008-07-16 07:07:43 51°14.245 2°55.269 323.1 10.4 318 10.5
2008-07-16 07:07:48 51°14.256 2°55.253 321.3 10.5 316 10.6
2008-07-16 07:07:53 51°14.266 2°55.236 318.8 10.6 314 10.7
2008-07-16 07:07:58 51°14.277 2°55.219 316.8 10.6 314 10.3
2008-07-16 07:08:03 51°14.287 2°55.203 316.4 10.7 315 10.1
2008-07-16 07:08:08 51°14.297 2°55.185 315.9 10.7 311 9.9
2008-07-16 07:08:13 51°14.307 2°55.168 314.2 10.8 312 9.9
2008-07-16 07:08:18 51°14.317 2°55.15 313.4 10.8 311 10
2008-07-16 07:08:23 51°14.327 2°55.132 313.2 10.9 311 10.2
2008-07-16 07:08:28 51°14.337 2°55.113 312.7 11 310 10.6
2008-07-16 07:08:33 51°14.347 2°55.094 312 11 310 10.7
2008-07-16 07:08:38 51°14.357 2°55.075 311.9 11.1 309 10.4
2008-07-16 07:08:43 51°14.366 2°55.056 311.3 11.2 308 10.9
2008-07-16 07:08:48 51°14.376 2°55.036 310 11.3 308 10.6
2008-07-16 07:08:53 51°14.386 2°55.017 309.9 11.4 310 10.2
2008-07-16 07:08:58 51°14.397 2°54.998 311.9 11.5 311 10.2
2008-07-16 07:09:03 51°14.407 2°54.978 313.4 11.7 310 10.2
2008-07-16 07:09:08 51°14.418 2°54.958 312.7 11.8 311 10.3
2008-07-16 07:09:13 51°14.429 2°54.939 313.1 11.9 313 10.2
2008-07-16 07:09:18 51°14.441 2°54.92 315.6 12 315 10.5
2008-07-16 07:09:23 51°14.453 2°54.901 317.8 12.1 314 10.4
2008-07-16 07:09:28 51°14.465 2°54.882 317.8 12.2 315 10.4
2008-07-16 07:09:33 51°14.476 2°54.862 318.1 12.2 313 10.3
2008-07-16 07:09:38 51°14.488 2°54.842 317.6 12.3 313 10.2
2008-07-16 07:09:43 51°14.499 2°54.823 317.3 12.3 314 10
2008-07-16 07:09:48 51°14.511 2°54.803 318.2 12.2 315 10
2008-07-16 07:09:53 51°14.523 2°54.784 320 12.3 315 9.9
2008-07-16 07:09:58 51°14.535 2°54.764 320 12.3 313 9.8
2008-07-16 07:10:03 51°14.547 2°54.745 319.3 12.3 314 9.7
2008-07-16 07:10:08 51°14.559 2°54.725 319.3 12.3 314 9.7
2008-07-16 07:10:13 51°14.571 2°54.705 319.5 12.3 313 9.7
2008-07-16 07:10:18 51°14.582 2°54.686 319 12.3 313 9.6
2008-07-16 07:10:23 51°14.594 2°54.665 318.6 12.4 312 9.6
2008-07-16 07:10:28 51°14.605 2°54.645 317.9 12.3 312 9.6
2008-07-16 07:10:33 51°14.616 2°54.624 317.4 12.4 309 9.6
2008-07-16 07:10:38 51°14.627 2°54.602 315.4 12.4 308 9.6
2008-07-16 07:10:43 51°14.637 2°54.581 313 12.4 308 9.6
2008-07-16 07:10:48 51°14.648 2°54.559 312.7 12.3 309 9.6
2008-07-16 07:10:53 51°14.659 2°54.539 314.2 12.3 310 9.7
2008-07-16 07:10:58 51°14.669 2°54.517 314.2 12.4 307 9.7
2008-07-16 07:11:03 51°14.68 2°54.496 313.2 12.3 310 9.8
2008-07-16 07:11:08 51°14.691 2°54.475 313.4 12.3 309 9.8
2008-07-16 07:11:13 51°14.702 2°54.454 314.1 12.3 312 9.8
2008-07-16 07:11:18 51°14.714 2°54.434 316 12.3 312 9.7
2008-07-16 07:11:23 51°14.725 2°54.414 316.3 12.3 310 9.6
2008-07-16 07:11:28 51°14.736 2°54.393 315.4 12.3 310 9.6
2008-07-16 07:11:33 51°14.746 2°54.372 314.9 12.3 309 9.5
2008-07-16 07:11:38 51°14.757 2°54.351 314.2 12.2 309 9.5
2008-07-16 07:11:43 51°14.768 2°54.33 313.6 12.3 308 10.1
2008-07-16 07:11:48 51°14.778 2°54.308 313.1 12.3 307 10
2008-07-16 07:11:53 51°14.788 2°54.286 311.4 12.3 307 10.1
2008-07-16 07:11:58 51°14.798 2°54.264 310.9 12.3 308 9.9
2008-07-16 07:12:03 51°14.808 2°54.243 311.8 12.2 308 9.3
2008-07-16 07:12:08 51°14.819 2°54.222 312.9 12.1 308 9.2
2008-07-16 07:12:13 51°14.829 2°54.2 313.1 12.2 305 9.2
2008-07-16 07:12:18 51°14.838 2°54.178 310.9 12.2 304 9.5
2008-07-16 07:12:23 51°14.847 2°54.155 309.6 12.2 301 9.2
2008-07-16 07:12:28 51°14.855 2°54.131 306.9 12.2 298 9.2
2008-07-16 07:12:33 51°14.862 2°54.106 303.5 12.2 295 9.2
2008-07-16 07:12:38 51°14.868 2°54.081 299.8 12.3 292 9.1
2008-07-16 07:12:43 51°14.874 2°54.055 296.9 12.3 289 9.2
2008-07-16 07:12:48 51°14.879 2°54.029 294.4 12.4 287 9.2
2008-07-16 07:12:53 51°14.883 2°54.003 291.9 12.5 285 9.2
2008-07-16 07:12:58 51°14.888 2°53.976 289.5 12.5 285 9.2
2008-07-16 07:13:03 51°14.892 2°53.949 288.3 12.6 283 9.3
2008-07-16 07:13:08 51°14.896 2°53.922 287.3 12.6 284 9.4
2008-07-16 07:13:13 51°14.9 2°53.895 287.6 12.6 284 9.4
2008-07-16 07:13:18 51°14.904 2°53.868 288.4 12.6 285 9.1
2008-07-16 07:13:23 51°14.909 2°53.841 288.8 12.5 285 9.1
2008-07-16 07:13:28 51°14.914 2°53.815 289.4 12.5 285 9.1
2008-07-16 07:13:33 51°14.918 2°53.788 289.6 12.6 285 9.3
2008-07-16 07:13:38 51°14.922 2°53.761 289.3 12.6 283 9.3
2008-07-16 07:13:43 51°14.926 2°53.734 288.1 12.6 283 9.4
2008-07-16 07:13:48 51°14.93 2°53.707 287.2 12.6 282 9.1
2008-07-16 07:13:53 51°14.933 2°53.68 286.6 12.5 281 9.3
2008-07-16 07:13:58 51°14.936 2°53.653 286.1 12.5 281 9.3
2008-07-16 07:14:03 51°14.938 2°53.625 284.4 12.6 275 9.3
2008-07-16 07:14:08 51°14.94 2°53.598 281.1 12.5 277 9.3
2008-07-16 07:14:13 51°14.942 2°53.57 280.1 12.6 275 9.4
2008-07-16 07:14:18 51°14.943 2°53.542 279.3 12.6 275 9.3
2008-07-16 07:14:23 51°14.944 2°53.514 278.4 12.6 274 9.4
2008-07-16 07:14:28 51°14.946 2°53.487 277.8 12.6 274 9.4
2008-07-16 07:14:33 51°14.946 2°53.458 277.1 12.7 272 9.5
2008-07-16 07:14:38 51°14.947 2°53.43 276.2 12.7 273 9.5
2008-07-16 07:14:43 51°14.948 2°53.402 276.1 12.7 272 9.6
2008-07-16 07:14:48 51°14.949 2°53.374 276 12.7 273 9.6
2008-07-16 07:14:53 51°14.95 2°53.346 276.5 12.7 273 9.6
2008-07-16 07:14:58 51°14.951 2°53.318 276.8 12.7 273 9.6
2008-07-16 07:15:03 51°14.952 2°53.29 276.5 12.7 274 9.7
2008-07-16 07:15:08 51°14.953 2°53.262 276.6 12.8 273 9.9
2008-07-16 07:15:13 51°14.954 2°53.234 276.6 12.7 273 9.8
2008-07-16 07:15:18 51°14.955 2°53.205 276.5 12.7 273 9.9
2008-07-16 07:15:23 51°14.956 2°53.178 276.5 12.7 274 10
2008-07-16 07:15:28 51°14.957 2°53.15 276.8 12.7 274 10.1
2008-07-16 07:15:33 51°14.958 2°53.122 277.2 12.7 273 10.1
2008-07-16 07:15:38 51°14.959 2°53.094 276.8 12.7 273 10
2008-07-16 07:15:43 51°14.96 2°53.066 276.6 12.7 273 10.1
2008-07-16 07:15:48 51°14.961 2°53.038 276.6 12.6 273 10.2
2008-07-16 07:15:53 51°14.962 2°53.01 276.6 12.7 273 10.2
2008-07-16 07:15:58 51°14.963 2°52.982 276.6 12.7 273 10.3
2008-07-16 07:16:03 51°14.964 2°52.954 276.7 12.7 274 10.4
2008-07-16 07:16:08 51°14.966 2°52.926 276.9 12.7 274 10.1
2008-07-16 07:16:13 51°14.967 2°52.898 277 12.7 273 10.3
2008-07-16 07:16:18 51°14.967 2°52.87 276.6 12.7 273 10.2
2008-07-16 07:16:23 51°14.969 2°52.842 276.4 12.7 273 10.3
2008-07-16 07:16:28 51°14.97 2°52.814 276.5 12.7 273 10.2
2008-07-16 07:16:33 51°14.97 2°52.786 276.6 12.7 273 10.3
2008-07-16 07:16:38 51°14.971 2°52.758 275.7 12.7 272 10.3
2008-07-16 07:16:43 51°14.972 2°52.73 275.4 12.7 272 10.2
2008-07-16 07:16:48 51°14.972 2°52.702 275 12.7 271 10.2
2008-07-16 07:16:53 51°14.973 2°52.674 274.8 12.7 272 10.1
2008-07-16 07:16:58 51°14.973 2°52.646 274.7 12.7 271 10.1
2008-07-16 07:17:03 51°14.973 2°52.617 274.5 12.8 271 10.1
2008-07-16 07:17:08 51°14.973 2°52.589 274.4 12.7 271 10
2008-07-16 07:17:13 51°14.974 2°52.561 274.2 12.8 271 10
2008-07-16 07:17:18 51°14.974 2°52.533 274.3 12.8 271 10
2008-07-16 07:17:23 51°14.974 2°52.505 274.1 12.7 271 10
2008-07-16 07:17:28 51°14.974 2°52.476 273.7 12.8 271 10.1
2008-07-16 07:17:33 51°14.975 2°52.448 273.9 12.8 271 10
2008-07-16 07:17:38 51°14.975 2°52.42 274.1 12.8 270 10
2008-07-16 07:17:43 51°14.975 2°52.392 273.9 12.8 271 10.1
2008-07-16 07:17:48 51°14.975 2°52.363 273.9 12.8 271 10.1
2008-07-16 07:17:53 51°14.976 2°52.335 274.3 12.8 271 10.2
2008-07-16 07:17:58 51°14.976 2°52.307 274.3 12.8 271 10.1
2008-07-16 07:18:03 51°14.976 2°52.278 274.3 12.8 271 10.2
2008-07-16 07:18:08 51°14.976 2°52.25 274.3 12.8 271 10.2
2008-07-16 07:18:13 51°14.976 2°52.222 274.1 12.8 270 10.2
2008-07-16 07:18:18 51°14.976 2°52.193 273.8 12.8 270 10.2
2008-07-16 07:18:23 51°14.976 2°52.165 273.1 12.8 270 10.2
2008-07-16 07:18:28 51°14.977 2°52.137 273 12.8 272 10.3
2008-07-16 07:18:33 51°14.978 2°52.108 275 12.8 273 10.3
2008-07-16 07:18:38 51°14.979 2°52.08 275.7 12.8 273 10.4
2008-07-16 07:18:43 51°14.98 2°52.052 276.7 12.8 274 10.4
2008-07-16 07:18:48 51°14.982 2°52.024 277.4 12.8 274 10.5
2008-07-16 07:18:53 51°14.983 2°51.996 278.1 12.8 276 10.5
2008-07-16 07:18:58 51°14.985 2°51.968 278.8 12.8 275 10.6
2008-07-16 07:19:03 51°14.986 2°51.94 279.2 12.8 274 10.5
2008-07-16 07:19:08 51°14.987 2°51.911 277.9 12.7 273 10.5
2008-07-16 07:19:13 51°14.988 2°51.883 277.2 12.7 273 10.6
2008-07-16 07:19:18 51°14.989 2°51.855 276.8 12.8 273 10.8
2008-07-16 07:19:23 51°14.99 2°51.827 276.4 12.8 273 10.7
2008-07-16 07:19:28 51°14.991 2°51.799 276.4 12.7 274 10.8
2008-07-16 07:19:33 51°14.992 2°51.771 277.2 12.7 274 10.8
2008-07-16 07:19:38 51°14.993 2°51.743 277.8 12.8 275 10.8
2008-07-16 07:19:43 51°14.995 2°51.714 278.5 12.8 275 10.9
2008-07-16 07:19:48 51°14.996 2°51.686 278.8 12.8 275 11
2008-07-16 07:19:53 51°14.998 2°51.658 279.3 12.8 275 11
2008-07-16 07:19:58 51°14.999 2°51.63 279.3 12.9 275 11.1
2008-07-16 07:20:03 51°15.001 2°51.601 279.4 12.8 275 11.2
2008-07-16 07:20:08 51°15.003 2°51.573 279.7 12.9 275 11.2
2008-07-16 07:20:13 51°15.004 2°51.545 279.8 12.8 276 11.2
2008-07-16 07:20:18 51°15.006 2°51.517 280 12.8 276 11.3
2008-07-16 07:20:23 51°15.009 2°51.489 280.4 12.8 278 11.3
2008-07-16 07:20:28 51°15.011 2°51.461 281.7 12.8 278 11.3
2008-07-16 07:20:33 51°15.014 2°51.433 282.2 12.8 279 11.3
2008-07-16 07:20:38 51°15.017 2°51.405 283.3 12.8 279 11.4
2008-07-16 07:20:43 51°15.02 2°51.377 284 12.8 280 11.5
2008-07-16 07:20:48 51°15.023 2°51.349 284.5 12.8 280 11.6
2008-07-16 07:20:53 51°15.026 2°51.321 284.5 12.8 280 11.5
2008-07-16 07:20:58 51°15.029 2°51.293 284.7 12.8 281 11.6
2008-07-16 07:21:03 51°15.032 2°51.265 285.3 12.8 280 11.5
2008-07-16 07:21:08 51°15.036 2°51.237 285.4 12.8 280 11.6
2008-07-16 07:21:13 51°15.039 2°51.21 284.9 12.8 280 11.6
2008-07-16 07:21:18 51°15.042 2°51.182 285.1 12.8 281 11.7
2008-07-16 07:21:23 51°15.046 2°51.154 285.1 12.8 282 11.7
2008-07-16 07:21:28 51°15.05 2°51.127 286 12.7 284 11.8
2008-07-16 07:21:33 51°15.054 2°51.1 287.8 12.8 283 11.9
2008-07-16 07:21:38 51°15.059 2°51.072 288.5 12.7 285 11.8
2008-07-16 07:21:43 51°15.063 2°51.045 289.7 12.7 285 11.9
2008-07-16 07:21:48 51°15.068 2°51.018 290.2 12.8 286 12
2008-07-16 07:21:53 51°15.073 2°50.991 291 12.8 287 11.9
2008-07-16 07:21:58 51°15.079 2°50.964 291.7 12.7 288 12
2008-07-16 07:22:03 51°15.084 2°50.938 293.1 12.8 288 12.1
2008-07-16 07:22:08 51°15.09 2°50.911 293.7 12.8 288 12.1
2008-07-16 07:22:13 51°15.095 2°50.884 293.8 12.8 287 12.1
2008-07-16 07:22:18 51°15.1 2°50.857 293.1 12.8 287 12
2008-07-16 07:22:23 51°15.106 2°50.83 292.8 12.8 288 12.1
2008-07-16 07:22:28 51°15.111 2°50.803 292.8 12.8 287 12.1
2008-07-16 07:22:33 51°15.116 2°50.776 292.4 12.8 288 12
2008-07-16 07:22:38 51°15.122 2°50.749 292.8 12.8 288 12
2008-07-16 07:22:43 51°15.127 2°50.722 293.1 12.8 289 12
2008-07-16 07:22:48 51°15.133 2°50.696 293.7 12.8 288 12.2
2008-07-16 07:22:53 51°15.138 2°50.669 293.9 12.8 289 12.2
2008-07-16 07:22:58 51°15.144 2°50.642 294 12.8 288 12.3
2008-07-16 07:23:03 51°15.15 2°50.615 293.9 12.8 289 12.3
2008-07-16 07:23:08 51°15.155 2°50.588 294 12.9 288 12.5
2008-07-16 07:23:13 51°15.161 2°50.561 293.9 12.8 288 12.4
2008-07-16 07:23:18 51°15.167 2°50.535 293.8 12.8 289 12.3
2008-07-16 07:23:23 51°15.173 2°50.508 294.1 12.8 289 12.3
2008-07-16 07:23:28 51°15.178 2°50.481 294.2 12.8 288 12.5
2008-07-16 07:23:33 51°15.184 2°50.454 293.9 12.8 289 12.3
2008-07-16 07:23:38 51°15.19 2°50.428 294.1 12.8 289 12.3
2008-07-16 07:23:43 51°15.196 2°50.401 294.5 12.8 289 12.4
2008-07-16 07:23:48 51°15.201 2°50.374 294.6 12.8 289 12.5
2008-07-16 07:23:53 51°15.207 2°50.347 294.1 12.8 288 12.4
2008-07-16 07:23:59 51°15.213 2°50.315 293.4 12.7 288 12.6
2008-07-16 07:24:03 51°15.217 2°50.294 292.7 12.8 287 12.6
2008-07-16 07:24:08 51°15.223 2°50.267 292.3 12.7 288 12.5
2008-07-16 07:24:13 51°15.228 2°50.24 292.2 12.7 286 12.6
2008-07-16 07:24:18 51°15.233 2°50.213 291.6 12.7 287 12.5
2008-07-16 07:24:23 51°15.238 2°50.186 291.4 12.7 287 12.6
2008-07-16 07:24:28 51°15.243 2°50.159 291.4 12.7 288 12.6
2008-07-16 07:24:33 51°15.249 2°50.133 291.7 12.7 288 12.5
2008-07-16 07:24:38 51°15.254 2°50.106 292 12.7 288 12.5
2008-07-16 07:24:43 51°15.259 2°50.079 292 12.6 287 12.5
2008-07-16 07:24:48 51°15.265 2°50.052 291.8 12.7 287 12.6
2008-07-16 07:24:53 51°15.27 2°50.026 291.6 12.7 288 12.8
2008-07-16 07:24:58 51°15.276 2°49.999 291.7 12.7 289 12.7
2008-07-16 07:25:03 51°15.282 2°49.973 293 12.7 289 12.7
2008-07-16 07:25:08 51°15.288 2°49.946 293.2 12.7 290 12.7
2008-07-16 07:25:13 51°15.294 2°49.92 294 12.7 290 12.7
2008-07-16 07:25:18 51°15.3 2°49.894 294.5 12.7 291 12.8
2008-07-16 07:25:23 51°15.306 2°49.868 294.9 12.7 291 12.7
2008-07-16 07:25:28 51°15.312 2°49.841 295.5 12.7 290 12.5
2008-07-16 07:25:33 51°15.318 2°49.815 295.3 12.7 291 12.7
2008-07-16 07:25:38 51°15.325 2°49.788 295.1 12.7 291 12.7
2008-07-16 07:25:43 51°15.331 2°49.762 295.3 12.7 290 12.8
2008-07-16 07:25:48 51°15.337 2°49.736 295.3 12.7 290 12.7
2008-07-16 07:25:53 51°15.343 2°49.709 294.7 12.7 290 12.7
2008-07-16 07:25:58 51°15.349 2°49.683 294.3 12.7 289 12.9
2008-07-16 07:26:03 51°15.354 2°49.656 293.6 12.7 289 12.8
2008-07-16 07:26:08 51°15.36 2°49.629 293.6 12.7 290 12.8
2008-07-16 07:26:13 51°15.366 2°49.603 293.9 12.7 289 12.7
2008-07-16 07:26:18 51°15.372 2°49.576 293.9 12.7 289 12.8
2008-07-16 07:26:23 51°15.378 2°49.55 293.7 12.7 289 12.8
2008-07-16 07:26:28 51°15.384 2°49.523 293.7 12.7 289 12.9
2008-07-16 07:26:33 51°15.39 2°49.497 293.5 12.7 289 12.9
2008-07-16 07:26:38 51°15.395 2°49.47 293.3 12.7 289 12.8
2008-07-16 07:26:43 51°15.401 2°49.444 293.5 12.7 289 12.9
2008-07-16 07:26:48 51°15.407 2°49.417 293.8 12.7 289 12.9
2008-07-16 07:26:53 51°15.413 2°49.391 293.6 12.7 289 12.8
2008-07-16 07:26:58 51°15.419 2°49.364 293.4 12.7 290 12.8
2008-07-16 07:27:03 51°15.424 2°49.338 293.6 12.7 288 12.9
2008-07-16 07:27:08 51°15.43 2°49.311 292.8 12.7 288 13
2008-07-16 07:27:13 51°15.435 2°49.284 292 12.6 287 13
2008-07-16 07:27:18 51°15.44 2°49.257 291.1 12.6 286 12.9
2008-07-16 07:27:23 51°15.444 2°49.23 290.1 12.7 286 12.9
2008-07-16 07:27:28 51°15.449 2°49.203 289.6 12.7 286 12.8
2008-07-16 07:27:33 51°15.454 2°49.176 289.3 12.7 286 12.8
2008-07-16 07:27:38 51°15.459 2°49.149 289.3 12.7 286 12.8
2008-07-16 07:27:43 51°15.464 2°49.123 289.7 12.6 288 12.8
2008-07-16 07:27:48 51°15.469 2°49.096 291 12.6 288 12.6
2008-07-16 07:27:53 51°15.474 2°49.07 291.2 12.7 286 12.6
2008-07-16 07:27:58 51°15.479 2°49.043 290.5 12.7 287 12.4
2008-07-16 07:28:03 51°15.484 2°49.016 290.4 12.6 287 12.2
2008-07-16 07:28:08 51°15.489 2°48.989 290.4 12.6 286 12
2008-07-16 07:28:13 51°15.494 2°48.962 290.1 12.6 286 11.8
2008-07-16 07:28:18 51°15.499 2°48.936 289.6 12.6 286 11.6
2008-07-16 07:28:23 51°15.504 2°48.909 289.8 12.5 286 11.4
2008-07-16 07:28:28 51°15.509 2°48.882 289.8 12.5 286 11.2
2008-07-16 07:28:33 51°15.513 2°48.855 289.5 12.6 285 11
2008-07-16 07:28:38 51°15.518 2°48.829 289 12.6 286 10.8
2008-07-16 07:28:43 51°15.523 2°48.803 289.7 12.5 287 10.6
2008-07-16 07:28:48 51°15.528 2°48.776 290.7 12.5 288 10.5
2008-07-16 07:28:53 51°15.534 2°48.75 291.7 12.5 288 10.4
2008-07-16 07:28:58 51°15.539 2°48.724 291.9 12.5 287 10.4
2008-07-16 07:29:03 51°15.544 2°48.697 291.4 12.5 286 10.3
2008-07-16 07:29:08 51°15.549 2°48.671 290.6 12.5 287 10.2
2008-07-16 07:29:13 51°15.554 2°48.644 290.5 12.5 286 10.4
2008-07-16 07:29:18 51°15.558 2°48.618 290.2 12.5 286 10.4
2008-07-16 07:29:23 51°15.563 2°48.591 290.1 12.5 286 10.3
2008-07-16 07:29:28 51°15.568 2°48.565 289.7 12.5 286 10.3
2008-07-16 07:29:33 51°15.572 2°48.538 289.7 12.5 285 10.3
2008-07-16 07:29:38 51°15.577 2°48.511 289.5 12.5 286 10.3
2008-07-16 07:29:43 51°15.582 2°48.485 289.6 12.5 286 10.4
2008-07-16 07:29:48 51°15.587 2°48.458 289.5 12.5 286 10.5
2008-07-16 07:29:53 51°15.591 2°48.432 289.7 12.5 286 10.5
2008-07-16 07:29:58 51°15.596 2°48.405 289.7 12.5 286 10.6
2008-07-16 07:30:03 51°15.601 2°48.378 290 12.5 286 10.6
2008-07-16 07:30:08 51°15.606 2°48.352 290.3 12.6 286 10.7
2008-07-16 07:30:13 51°15.611 2°48.325 290.3 12.5 286 10.7
2008-07-16 07:30:18 51°15.616 2°48.299 290.2 12.6 286 10.8
2008-07-16 07:30:23 51°15.621 2°48.272 290.2 12.6 286 11
2008-07-16 07:30:28 51°15.626 2°48.245 289.9 12.6 287 11
2008-07-16 07:30:33 51°15.631 2°48.219 290.2 12.6 288 11.1
2008-07-16 07:30:38 51°15.637 2°48.192 291.4 12.6 289 11.3
2008-07-16 07:30:43 51°15.643 2°48.167 292.5 12.6 291 11.3
2008-07-16 07:30:48 51°15.649 2°48.141 294.1 12.5 291 11.5
2008-07-16 07:30:53 51°15.655 2°48.115 295.3 12.5 292 11.5
2008-07-16 07:30:58 51°15.662 2°48.089 295.9 12.6 292 11.8
2008-07-16 07:31:03 51°15.669 2°48.063 296.4 12.6 293 11.8
2008-07-16 07:31:08 51°15.675 2°48.038 296.9 12.6 293 12
2008-07-16 07:31:13 51°15.682 2°48.012 297.1 12.5 292 12.2
2008-07-16 07:31:18 51°15.688 2°47.986 296.4 12.6 291 12.3
2008-07-16 07:31:23 51°15.695 2°47.96 296.2 12.6 292 12.4
2008-07-16 07:31:28 51°15.701 2°47.934 295.5 12.6 291 12.6
2008-07-16 07:31:33 51°15.708 2°47.909 295.8 12.6 293 12.8
2008-07-16 07:31:38 51°15.715 2°47.883 296.8 12.7 292 12.9
2008-07-16 07:31:43 51°15.722 2°47.857 297.3 12.6 294 13.2
2008-07-16 07:31:48 51°15.729 2°47.831 297.8 12.7 293 13.5
2008-07-16 07:31:53 51°15.736 2°47.806 297.9 12.7 294 13.6
2008-07-16 07:31:58 51°15.743 2°47.78 298.2 12.6 293 13.8
2008-07-16 07:32:03 51°15.75 2°47.754 298.2 12.7 294 14.1
2008-07-16 07:32:08 51°15.758 2°47.729 298.5 12.7 294 14.1
2008-07-16 07:32:13 51°15.765 2°47.703 298.7 12.7 293 14.3
2008-07-16 07:32:18 51°15.771 2°47.677 298 12.7 293 14.4
2008-07-16 07:32:23 51°15.778 2°47.651 297.1 12.7 292 14.5
2008-07-16 07:32:28 51°15.784 2°47.625 296.4 12.7 292 14.8
2008-07-16 07:32:33 51°15.791 2°47.599 296 12.7 291 14.8
2008-07-16 07:32:38 51°15.797 2°47.573 295.8 12.7 292 14.9
2008-07-16 07:32:43 51°15.804 2°47.547 295.6 12.7 291 15.1
2008-07-16 07:32:48 51°15.81 2°47.52 295.6 12.7 291 15.3
2008-07-16 07:32:53 51°15.817 2°47.495 295.5 12.7 292 15.2
2008-07-16 07:32:58 51°15.823 2°47.468 295.6 12.7 292 15.5
2008-07-16 07:33:03 51°15.83 2°47.442 295.6 12.7 292 15.5
2008-07-16 07:33:08 51°15.836 2°47.416 295.8 12.7 291 15.7
2008-07-16 07:33:13 51°15.843 2°47.39 295.3 12.7 292 15.6
2008-07-16 07:33:18 51°15.849 2°47.364 295.1 12.7 291 15.7
2008-07-16 07:33:23 51°15.856 2°47.337 295.2 12.7 292 16
2008-07-16 07:33:28 51°15.862 2°47.311 295.5 12.8 291 16
2008-07-16 07:33:33 51°15.868 2°47.285 295.2 12.8 291 16.1
2008-07-16 07:33:38 51°15.875 2°47.258 294.8 12.8 291 16.1
2008-07-16 07:33:43 51°15.881 2°47.232 294.8 12.8 291 16.1
2008-07-16 07:33:48 51°15.888 2°47.206 294.8 12.8 291 16.3
2008-07-16 07:33:53 51°15.894 2°47.179 294.7 12.8 291 16.4
2008-07-16 07:33:58 51°15.9 2°47.153 294.6 12.7 290 16.4
2008-07-16 07:34:03 51°15.906 2°47.127 294.3 12.7 291 16.5
2008-07-16 07:34:08 51°15.912 2°47.1 294.3 12.8 290 16.5
2008-07-16 07:34:13 51°15.919 2°47.074 294.2 12.7 291 16.4
2008-07-16 07:34:18 51°15.925 2°47.047 294.5 12.7 290 16.6
2008-07-16 07:34:23 51°15.931 2°47.021 294.3 12.8 291 16.6
2008-07-16 07:34:28 51°15.938 2°46.995 294.3 12.7 291 16.6
2008-07-16 07:34:33 51°15.944 2°46.968 294.6 12.8 290 16.6
2008-07-16 07:34:38 51°15.95 2°46.942 293.9 12.7 290 16.5
2008-07-16 07:34:43 51°15.956 2°46.915 293.5 12.7 289 16.4
2008-07-16 07:34:48 51°15.961 2°46.889 292.9 12.7 289 16.3
2008-07-16 07:34:53 51°15.967 2°46.862 292.8 12.7 289 16.3
2008-07-16 07:34:58 51°15.973 2°46.835 292.4 12.7 290 16.1
2008-07-16 07:35:03 51°15.979 2°46.809 292.6 12.7 289 16
2008-07-16 07:35:08 51°15.985 2°46.783 292.8 12.7 290 16
2008-07-16 07:35:13 51°15.991 2°46.756 293.1 12.7 290 15.9
2008-07-16 07:35:18 51°15.996 2°46.73 293.1 12.7 289 15.6
2008-07-16 07:35:23 51°16.002 2°46.703 292.8 12.6 290 15.6
2008-07-16 07:35:28 51°16.008 2°46.677 293 12.6 289 15.4
2008-07-16 07:35:33 51°16.014 2°46.651 292.8 12.6 290 15.2
2008-07-16 07:35:38 51°16.02 2°46.624 293.1 12.6 290 14.9
2008-07-16 07:35:43 51°16.026 2°46.598 293.4 12.6 290 14.6
2008-07-16 07:35:48 51°16.032 2°46.572 293.4 12.6 290 14.3
2008-07-16 07:35:53 51°16.038 2°46.546 293.7 12.5 292 14.3
2008-07-16 07:35:58 51°16.044 2°46.52 294.7 12.5 291 14.2
2008-07-16 07:36:03 51°16.051 2°46.495 295.3 12.5 292 14
2008-07-16 07:36:08 51°16.057 2°46.469 295.6 12.5 292 13.9
2008-07-16 07:36:13 51°16.064 2°46.443 295.6 12.5 292 13.6
2008-07-16 07:36:18 51°16.071 2°46.418 296 12.5 292 11.8
2008-07-16 07:36:23 51°16.077 2°46.392 296 12.5 291 11.5
2008-07-16 07:36:28 51°16.083 2°46.367 295.9 12.4 292 11.7
2008-07-16 07:36:33 51°16.09 2°46.341 296 12.4 291 11.9
2008-07-16 07:36:38 51°16.096 2°46.316 296 12.4 292 12
2008-07-16 07:36:43 51°16.103 2°46.29 296 12.5 292 12.2
2008-07-16 07:36:48 51°16.109 2°46.265 295.9 12.5 293 12.3
2008-07-16 07:36:53 51°16.116 2°46.239 296.3 12.5 292 12.2
2008-07-16 07:36:58 51°16.122 2°46.214 296.3 12.4 293 11.9
2008-07-16 07:37:03 51°16.129 2°46.188 296.4 12.4 293 11.9
2008-07-16 07:37:08 51°16.136 2°46.163 296.5 12.4 292 11.6
2008-07-16 07:37:13 51°16.142 2°46.137 296.5 12.4 292 11.6
2008-07-16 07:37:18 51°16.149 2°46.112 296.1 12.3 292 11.4
2008-07-16 07:37:23 51°16.155 2°46.087 296 12.4 293 11.4
2008-07-16 07:37:28 51°16.162 2°46.061 296.3 12.4 292 11.2
2008-07-16 07:37:33 51°16.168 2°46.036 296.4 12.3 292 11.2
2008-07-16 07:37:38 51°16.175 2°46.011 296.3 12.3 292 11.1
2008-07-16 07:37:43 51°16.181 2°45.985 296 12.3 292 11.1
2008-07-16 07:37:48 51°16.187 2°45.96 295.8 12.3 292 11
2008-07-16 07:37:53 51°16.194 2°45.935 296 12.3 292 11
2008-07-16 07:37:58 51°16.2 2°45.909 296.3 12.3 292 10.9
2008-07-16 07:38:03 51°16.207 2°45.884 296.3 12.3 293 10.9
2008-07-16 07:38:08 51°16.214 2°45.859 296.8 12.3 293 10.7
2008-07-16 07:38:13 51°16.22 2°45.834 297 12.3 293 10.6
2008-07-16 07:38:18 51°16.227 2°45.809 296.9 12.3 293 10.5
2008-07-16 07:38:23 51°16.233 2°45.784 297 12.3 292 10.3
2008-07-16 07:38:28 51°16.239 2°45.759 296.8 12.2 292 10.3
2008-07-16 07:38:33 51°16.246 2°45.734 296.3 12.3 292 10.4
2008-07-16 07:38:38 51°16.252 2°45.708 296.3 12.3 292 10.5
2008-07-16 07:38:43 51°16.259 2°45.683 296.2 12.3 292 10.4
2008-07-16 07:38:48 51°16.265 2°45.658 296.2 12.3 292 10.5
2008-07-16 07:38:53 51°16.271 2°45.633 296.4 12.3 292 10.4
2008-07-16 07:38:58 51°16.278 2°45.608 296.6 12.3 292 10.4
2008-07-16 07:39:03 51°16.284 2°45.582 296.5 12.3 291 10.6
2008-07-16 07:39:08 51°16.29 2°45.557 296.4 12.3 292 10.4
2008-07-16 07:39:13 51°16.297 2°45.532 296.6 12.2 292 10.5
2008-07-16 07:39:18 51°16.304 2°45.507 297.1 12.2 294 10.5
2008-07-16 07:39:23 51°16.311 2°45.483 298.1 12.2 294 10.7
2008-07-16 07:39:28 51°16.317 2°45.458 298.5 12.2 294 10.8
2008-07-16 07:39:33 51°16.325 2°45.434 299.2 12.3 295 10.8
2008-07-16 07:39:38 51°16.332 2°45.409 299.7 12.2 295 11
2008-07-16 07:39:43 51°16.339 2°45.384 299.8 12.3 295 10.9
2008-07-16 07:39:48 51°16.346 2°45.36 299.9 12.2 295 10.8
2008-07-16 07:39:53 51°16.353 2°45.335 299.8 12.2 295 10.8
2008-07-16 07:39:58 51°16.36 2°45.31 300 12.2 295 10.8
2008-07-16 07:40:03 51°16.367 2°45.286 300.1 12.3 294 10.7
2008-07-16 07:40:08 51°16.374 2°45.261 300 12.3 295 10.8
2008-07-16 07:40:13 51°16.381 2°45.236 299.8 12.3 294 11
2008-07-16 07:40:18 51°16.388 2°45.212 299.9 12.2 295 11.1
2008-07-16 07:40:23 51°16.395 2°45.187 299.9 12.2 295 11.1
2008-07-16 07:40:28 51°16.403 2°45.163 300.2 12.3 295 11.2
2008-07-16 07:40:33 51°16.41 2°45.138 300.4 12.3 295 11.2
2008-07-16 07:40:38 51°16.417 2°45.113 300.3 12.3 295 11.3
2008-07-16 07:40:43 51°16.425 2°45.089 300.4 12.2 296 11.2
2008-07-16 07:40:48 51°16.432 2°45.065 301.4 12.2 296 11.1
2008-07-16 07:40:53 51°16.44 2°45.041 301.6 12.3 296 11.4
2008-07-16 07:40:58 51°16.447 2°45.016 301.8 12.2 297 11.3
2008-07-16 07:41:03 51°16.455 2°44.992 301.8 12.2 296 11.2
2008-07-16 07:41:08 51°16.463 2°44.968 302.2 12.3 297 11.3
2008-07-16 07:41:13 51°16.47 2°44.944 302.2 12.2 296 10.8
2008-07-16 07:41:18 51°16.478 2°44.92 301.9 12.2 297 10.8
2008-07-16 07:41:23 51°16.485 2°44.895 301.9 12.2 296 10.9
2008-07-16 07:41:28 51°16.493 2°44.871 301.9 12.2 296 10.6
2008-07-16 07:41:33 51°16.5 2°44.847 302 12.1 299 10.2
2008-07-16 07:41:38 51°16.508 2°44.823 303.5 12.2 298 10.1
2008-07-16 07:41:43 51°16.517 2°44.8 303.9 12.2 300 10.3
2008-07-16 07:41:48 51°16.525 2°44.777 304.6 12.2 300 10.4
2008-07-16 07:41:53 51°16.534 2°44.753 305.1 12.2 300 10.6
2008-07-16 07:41:58 51°16.542 2°44.73 305.4 12.3 299 10.7
2008-07-16 07:42:03 51°16.551 2°44.706 305.2 12.2 301 11
2008-07-16 07:42:08 51°16.559 2°44.683 305.5 12.3 300 11.2
2008-07-16 07:42:13 51°16.568 2°44.659 305.7 12.3 300 11.3
2008-07-16 07:42:18 51°16.576 2°44.636 305.7 12.3 300 11.6
2008-07-16 07:42:23 51°16.585 2°44.612 305.6 12.3 300 11.6
2008-07-16 07:42:28 51°16.593 2°44.589 305.6 12.3 301 11.9
2008-07-16 07:42:33 51°16.602 2°44.565 305.7 12.3 301 12.1
2008-07-16 07:42:38 51°16.611 2°44.543 306.4 12.3 303 12.1
2008-07-16 07:42:43 51°16.62 2°44.52 307.5 12.2 302 12.1
2008-07-16 07:42:48 51°16.63 2°44.498 308.4 12.2 304 12.6
2008-07-16 07:42:53 51°16.639 2°44.475 309.2 12.2 303 12.9
2008-07-16 07:42:58 51°16.648 2°44.452 309.1 12.3 304 13.3
2008-07-16 07:43:03 51°16.658 2°44.43 309.4 12.3 304 13.6
2008-07-16 07:43:08 51°16.667 2°44.407 310.3 12.3 304 13.9
2008-07-16 07:43:13 51°16.677 2°44.385 310 12.3 304 14
2008-07-16 07:43:18 51°16.687 2°44.363 310 12.3 304 14.2
2008-07-16 07:43:23 51°16.696 2°44.34 309.8 12.3 304 14.4
2008-07-16 07:43:28 51°16.706 2°44.317 310 12.3 304 14.5
2008-07-16 07:43:33 51°16.715 2°44.295 310 12.3 304 14.5
2008-07-16 07:43:38 51°16.725 2°44.272 309.8 12.3 303 14.7
2008-07-16 07:43:43 51°16.734 2°44.25 309.6 12.3 304 14.8
2008-07-16 07:43:48 51°16.744 2°44.227 309.5 12.3 303 14.9
2008-07-16 07:43:53 51°16.753 2°44.204 309.4 12.3 304 14.8
2008-07-16 07:43:58 51°16.763 2°44.182 309.7 12.3 303 14.9
2008-07-16 07:44:03 51°16.772 2°44.159 309.8 12.3 304 14.9
2008-07-16 07:44:08 51°16.782 2°44.136 309.9 12.3 303 15
2008-07-16 07:44:13 51°16.791 2°44.114 309.8 12.3 304 15
2008-07-16 07:44:18 51°16.8 2°44.091 309.6 12.3 304 15.1
2008-07-16 07:44:23 51°16.81 2°44.068 309.6 12.3 304 15.2
2008-07-16 07:44:28 51°16.82 2°44.046 309.8 12.3 305 15.2
2008-07-16 07:44:33 51°16.829 2°44.023 310.5 12.4 304 15.2
2008-07-16 07:44:38 51°16.839 2°44.001 310.8 12.3 306 15
2008-07-16 07:44:43 51°16.849 2°43.979 312 12.3 306 15
2008-07-16 07:44:48 51°16.86 2°43.957 312.3 12.3 307 14.9
2008-07-16 07:44:53 51°16.87 2°43.935 312.7 12.3 306 14.7
2008-07-16 07:44:58 51°16.88 2°43.913 312.7 12.3 306 15.2
2008-07-16 07:45:03 51°16.89 2°43.891 312.8 12.3 306 15.1
2008-07-16 07:45:08 51°16.899 2°43.869 312.6 12.4 304 14.7
2008-07-16 07:45:13 51°16.909 2°43.846 311.6 12.4 305 14.6
2008-07-16 07:45:18 51°16.919 2°43.823 311.4 12.4 304 14.6
2008-07-16 07:45:23 51°16.928 2°43.801 310.7 12.4 304 14.9
2008-07-16 07:45:28 51°16.938 2°43.778 310.4 12.4 303 14.9
2008-07-16 07:45:33 51°16.947 2°43.755 310.2 12.4 304 14.7
2008-07-16 07:45:38 51°16.957 2°43.732 310.2 12.4 304 14.8
2008-07-16 07:45:43 51°16.966 2°43.709 310.2 12.4 303 14.8
2008-07-16 07:45:48 51°16.975 2°43.686 309.4 12.5 301 14.7
2008-07-16 07:45:53 51°16.984 2°43.662 308.4 12.4 302 14.3
2008-07-16 07:45:58 51°16.993 2°43.639 308 12.4 300 14.3
2008-07-16 07:46:03 51°17.002 2°43.615 307.2 12.5 300 14.5
2008-07-16 07:46:08 51°17.01 2°43.591 306.7 12.5 300 14.6
2008-07-16 07:46:13 51°17.019 2°43.567 306.4 12.5 299 14.5
2008-07-16 07:46:18 51°17.028 2°43.543 306.1 12.5 300 14.5
2008-07-16 07:46:23 51°17.037 2°43.52 306 12.5 302 14.4
2008-07-16 07:46:28 51°17.046 2°43.496 307.4 12.4 302 14.2
2008-07-16 07:46:33 51°17.055 2°43.473 308.2 12.4 303 14.4
2008-07-16 07:46:38 51°17.064 2°43.45 308.6 12.4 303 14.2
2008-07-16 07:46:43 51°17.074 2°43.427 309.2 12.4 304 14.3
2008-07-16 07:46:48 51°17.083 2°43.404 309.8 12.4 303 14.4
2008-07-16 07:46:53 51°17.093 2°43.382 309.9 12.4 304 14.2
2008-07-16 07:46:58 51°17.103 2°43.359 310.3 12.4 304 13.9
2008-07-16 07:47:03 51°17.112 2°43.336 310.5 12.4 304 13.7
2008-07-16 07:47:08 51°17.122 2°43.313 310.1 12.4 304 13.4
2008-07-16 07:47:13 51°17.132 2°43.291 310 12.4 305 12.7
2008-07-16 07:47:18 51°17.142 2°43.268 310.6 12.4 305 12.1
2008-07-16 07:47:23 51°17.152 2°43.246 311.3 12.4 307 10.7
2008-07-16 07:47:28 51°17.162 2°43.224 312.4 12.4 306 12.7
2008-07-16 07:47:33 51°17.173 2°43.203 312.7 12.5 308 13.5
2008-07-16 07:47:38 51°17.184 2°43.181 313.5 12.5 307 12.9
2008-07-16 07:47:43 51°17.194 2°43.159 313.5 12.4 308 12.2
2008-07-16 07:47:48 51°17.205 2°43.137 313.3 12.4 307 11.3
2008-07-16 07:47:53 51°17.215 2°43.115 313.1 12.4 307 11.1
2008-07-16 07:47:58 51°17.226 2°43.093 312.9 12.4 308 12.7
2008-07-16 07:48:03 51°17.236 2°43.071 313 12.5 308 13
2008-07-16 07:48:08 51°17.247 2°43.05 313 12.5 308 12.7
2008-07-16 07:48:13 51°17.258 2°43.028 313.5 12.5 308 12.1
2008-07-16 07:48:18 51°17.268 2°43.006 313.4 12.4 307 11.4
2008-07-16 07:48:23 51°17.279 2°42.984 313 12.4 308 10.8
2008-07-16 07:48:28 51°17.289 2°42.963 313 12.4 307 10.3
2008-07-16 07:48:33 51°17.3 2°42.941 312.7 12.4 308 10.6
2008-07-16 07:48:38 51°17.31 2°42.919 312.6 12.4 307 10.4
2008-07-16 07:48:43 51°17.321 2°42.898 312.4 12.4 308 10.3
2008-07-16 07:48:48 51°17.331 2°42.876 312.6 12.4 308 9.9
2008-07-16 07:48:53 51°17.342 2°42.854 312.7 12.4 307 9.7
2008-07-16 07:48:58 51°17.352 2°42.832 312.3 12.4 307 8.9
2008-07-16 07:49:03 51°17.363 2°42.81 312 12.4 308 10.4
2008-07-16 07:49:08 51°17.373 2°42.788 312.1 12.5 307 11.5
2008-07-16 07:49:13 51°17.384 2°42.766 311.9 12.6 308 11.9
2008-07-16 07:49:18 51°17.394 2°42.744 312.1 12.7 307 12
2008-07-16 07:49:23 51°17.405 2°42.721 311.9 12.7 307 12.2
2008-07-16 07:49:28 51°17.416 2°42.699 311.7 12.6 307 12.7
2008-07-16 07:49:33 51°17.426 2°42.676 311.3 12.6 306 13.4
2008-07-16 07:49:38 51°17.436 2°42.654 310.7 12.7 306 14.5
2008-07-16 07:49:43 51°17.447 2°42.631 310.2 12.7 306 15.8
2008-07-16 07:49:48 51°17.457 2°42.608 309.8 12.7 305 17.6
2008-07-16 07:49:53 51°17.467 2°42.585 309.4 12.7 305 19.5
2008-07-16 07:49:58 51°17.477 2°42.562 309.4 12.7 305 20.5
2008-07-16 07:50:03 51°17.487 2°42.539 309.2 12.7 304 20.9
2008-07-16 07:50:08 51°17.496 2°42.515 308.9 12.7 303 21.4
2008-07-16 07:50:13 51°17.506 2°42.492 308.4 12.7 305 21.7
2008-07-16 07:50:18 51°17.516 2°42.469 308.7 12.7 304 22
2008-07-16 07:50:23 51°17.526 2°42.446 308.6 12.6 304 22.3
2008-07-16 07:50:28 51°17.535 2°42.422 308.6 12.6 304 22.6
2008-07-16 07:50:33 51°17.545 2°42.399 308.6 12.6 304 22.7
2008-07-16 07:50:38 51°17.555 2°42.376 309 12.6 304 23.1
2008-07-16 07:50:43 51°17.565 2°42.353 308.8 12.6 304 23.1
2008-07-16 07:50:48 51°17.574 2°42.33 308.7 12.6 303 23.2
2008-07-16 07:50:53 51°17.584 2°42.307 308.3 12.6 304 23.2
2008-07-16 07:50:58 51°17.594 2°42.283 308.6 12.7 303 23.2
2008-07-16 07:51:03 51°17.603 2°42.26 308.8 12.6 304 23.4
2008-07-16 07:51:08 51°17.613 2°42.237 308.8 12.6 304 23.4
2008-07-16 07:51:13 51°17.623 2°42.214 309 12.6 304 23.6
2008-07-16 07:51:18 51°17.632 2°42.19 308.6 12.7 303 23.7
2008-07-16 07:51:23 51°17.642 2°42.167 308.7 12.6 304 23.9
2008-07-16 07:51:28 51°17.652 2°42.144 309 12.6 303 24.1
2008-07-16 07:51:33 51°17.661 2°42.12 309 12.6 304 24.1
2008-07-16 07:51:38 51°17.671 2°42.097 309.1 12.7 303 23.8
2008-07-16 07:51:43 51°17.68 2°42.073 309 12.7 303 23.9
2008-07-16 07:51:48 51°17.69 2°42.05 308.5 12.7 304 23.9
2008-07-16 07:51:53 51°17.7 2°42.027 309.4 12.6 305 24
2008-07-16 07:51:58 51°17.71 2°42.004 310 12.6 304 24.1
2008-07-16 07:52:03 51°17.72 2°41.982 310.2 12.6 306 24.1
2008-07-16 07:52:08 51°17.73 2°41.959 310.5 12.6 306 24
2008-07-16 07:52:13 51°17.742 2°41.938 311.9 12.5 311 24.1
2008-07-16 07:52:18 51°17.753 2°41.917 315.1 12.5 310 24
2008-07-16 07:52:23 51°17.765 2°41.897 316.4 12.4 313 23.9
2008-07-16 07:52:28 51°17.776 2°41.877 317.8 12.4 312 23.9
2008-07-16 07:52:33 51°17.788 2°41.857 318.6 12.4 314 24.1
2008-07-16 07:52:38 51°17.8 2°41.838 319.5 12.3 315 24
2008-07-16 07:52:43 51°17.813 2°41.819 320.7 12.3 316 23.9
2008-07-16 07:52:48 51°17.825 2°41.8 321.8 12.3 316 23.9
2008-07-16 07:52:53 51°17.837 2°41.781 322.6 12.2 317 23.9
2008-07-16 07:52:58 51°17.85 2°41.763 323 12.2 317 24
2008-07-16 07:53:03 51°17.862 2°41.745 323.6 12.3 318 24
2008-07-16 07:53:08 51°17.875 2°41.727 324 12.2 318 23.9
2008-07-16 07:53:13 51°17.887 2°41.709 324.1 12.2 318 23.8
2008-07-16 07:53:18 51°17.9 2°41.69 324.3 12.2 317 23.8
2008-07-16 07:53:23 51°17.912 2°41.672 323.6 12.2 318 23.7
2008-07-16 07:53:28 51°17.925 2°41.653 323.6 12.2 316 23.6
2008-07-16 07:53:33 51°17.937 2°41.634 323.2 12.2 317 23.5
2008-07-16 07:53:38 51°17.949 2°41.615 322.6 12.2 314 23.5
2008-07-16 07:53:43 51°17.961 2°41.597 321.9 12.2 317 23.4
2008-07-16 07:53:48 51°17.973 2°41.577 322.2 12.3 313 23.4
2008-07-16 07:53:53 51°17.985 2°41.557 320.9 12.2 315 23.2
2008-07-16 07:53:58 51°17.997 2°41.538 320.8 12.3 314 23.4
2008-07-16 07:54:03 51°18.008 2°41.518 320.6 12.3 313 23.2
2008-07-16 07:54:08 51°18.02 2°41.498 320 12.3 314 22.8
2008-07-16 07:54:13 51°18.032 2°41.478 320.1 12.3 313 22.5
2008-07-16 07:54:18 51°18.043 2°41.459 319.6 12.2 314 22.1
2008-07-16 07:54:23 51°18.055 2°41.439 320 12.3 314 22.3
2008-07-16 07:54:28 51°18.067 2°41.42 320.3 12.3 314 22.6
2008-07-16 07:54:33 51°18.078 2°41.4 320.1 12.3 313 22.4
2008-07-16 07:54:38 51°18.09 2°41.38 319.7 12.2 314 22.5
2008-07-16 07:54:43 51°18.102 2°41.36 320.2 12.3 313 22.5
2008-07-16 07:54:48 51°18.113 2°41.339 319.9 12.3 310 22.2
2008-07-16 07:54:53 51°18.124 2°41.319 317.8 12.3 311 22
2008-07-16 07:54:58 51°18.135 2°41.297 317 12.4 308 21.7
2008-07-16 07:55:03 51°18.145 2°41.276 315.6 12.4 308 21.2
2008-07-16 07:55:08 51°18.156 2°41.254 314.8 12.4 308 21.1
2008-07-16 07:55:13 51°18.166 2°41.232 314.2 12.4 307 19
2008-07-16 07:55:18 51°18.177 2°41.211 313.8 12.4 307 19.3
2008-07-16 07:55:23 51°18.187 2°41.188 313.5 12.5 306 20
2008-07-16 07:55:28 51°18.198 2°41.166 313.3 12.4 308 20.2
2008-07-16 07:55:33 51°18.208 2°41.144 313.5 12.4 306 20.5
2008-07-16 07:55:38 51°18.218 2°41.122 312.7 12.4 306 20.4
2008-07-16 07:55:43 51°18.228 2°41.1 312 12.4 306 20.2
2008-07-16 07:55:48 51°18.238 2°41.077 311.4 12.4 305 20
2008-07-16 07:55:53 51°18.247 2°41.054 310.9 12.5 305 19.6
2008-07-16 07:55:59 51°18.259 2°41.027 310.5 12.5 304 19.5
2008-07-16 07:56:03 51°18.267 2°41.009 310.1 12.4 304 18.4
2008-07-16 07:56:08 51°18.277 2°40.986 310.3 12.4 304 15.9
2008-07-16 07:56:13 51°18.286 2°40.963 310.3 12.4 304 16.4
2008-07-16 07:56:18 51°18.296 2°40.941 310.3 12.4 305 17.1
2008-07-16 07:56:23 51°18.306 2°40.918 310.9 12.5 305 16
2008-07-16 07:56:28 51°18.316 2°40.895 311.2 12.5 306 16.9
2008-07-16 07:56:33 51°18.327 2°40.873 311.7 12.5 308 16.9
2008-07-16 07:56:38 51°18.337 2°40.851 312.9 12.5 307 16.1
2008-07-16 07:56:43 51°18.348 2°40.83 313.4 12.5 308 12.4
2008-07-16 07:56:48 51°18.359 2°40.808 314.1 12.5 308 14.9
2008-07-16 07:56:53 51°18.37 2°40.786 314.1 12.5 309 16.8
2008-07-16 07:56:58 51°18.381 2°40.764 314.4 12.6 309 18.2
2008-07-16 07:57:03 51°18.392 2°40.743 314.9 12.6 309 19
2008-07-16 07:57:08 51°18.402 2°40.721 314.9 12.6 309 19.3
2008-07-16 07:57:13 51°18.414 2°40.7 314.8 12.6 309 19.3
2008-07-16 07:57:18 51°18.424 2°40.678 314.7 12.5 309 19.5
2008-07-16 07:57:23 51°18.435 2°40.657 314.7 12.5 309 19.7
2008-07-16 07:57:28 51°18.446 2°40.635 314.6 12.5 309 18.3
2008-07-16 07:57:33 51°18.457 2°40.614 314.3 12.4 309 12.5
2008-07-16 07:57:38 51°18.468 2°40.592 314.3 12.5 308 14.4
2008-07-16 07:57:43 51°18.478 2°40.57 313.8 12.6 308 16.9
2008-07-16 07:57:48 51°18.489 2°40.548 313.8 12.5 309 18.3
2008-07-16 07:57:53 51°18.5 2°40.527 314 12.5 309 18.7
2008-07-16 07:57:59 51°18.513 2°40.501 314.4 12.5 309 17.8
2008-07-16 07:58:03 51°18.522 2°40.484 314.4 12.5 308 15.5
2008-07-16 07:58:08 51°18.533 2°40.462 313.9 12.5 309 12.6
2008-07-16 07:58:13 51°18.543 2°40.44 314.2 12.5 307 13.9
2008-07-16 07:58:18 51°18.554 2°40.418 313.3 12.5 307 14.3
2008-07-16 07:58:23 51°18.564 2°40.395 312.6 12.6 306 12.7
2008-07-16 07:58:28 51°18.574 2°40.373 311.4 12.6 306 13.1
2008-07-16 07:58:33 51°18.585 2°40.35 311.2 12.6 306 16.7
2008-07-16 07:58:38 51°18.595 2°40.327 311 12.7 306 19.5
2008-07-16 07:58:43 51°18.606 2°40.304 310.5 12.7 306 21.4
2008-07-16 07:58:48 51°18.616 2°40.281 310.7 12.7 305 21.9
2008-07-16 07:58:53 51°18.626 2°40.259 310.4 12.7 306 22.3
2008-07-16 07:58:58 51°18.636 2°40.236 310.5 12.7 306 22.7
2008-07-16 07:59:03 51°18.646 2°40.213 310.8 12.6 305 22.9
2008-07-16 07:59:08 51°18.657 2°40.191 310.4 12.6 306 23.2
2008-07-16 07:59:13 51°18.667 2°40.168 310.5 12.6 306 23.6
2008-07-16 07:59:18 51°18.677 2°40.146 311.1 12.6 307 23.7
2008-07-16 07:59:23 51°18.688 2°40.123 311.3 12.6 306 23.7
2008-07-16 07:59:28 51°18.698 2°40.101 311.4 12.5 307 24.3
2008-07-16 07:59:33 51°18.708 2°40.079 311.9 12.6 306 24.7
2008-07-16 07:59:38 51°18.719 2°40.056 311.3 12.5 307 24.4
2008-07-16 07:59:43 51°18.729 2°40.034 311.6 12.5 307 24.7
2008-07-16 07:59:48 51°18.74 2°40.012 311.7 12.5 307 24.8
2008-07-16 07:59:53 51°18.75 2°39.99 312 12.5 307 24.3
2008-07-16 07:59:58 51°18.761 2°39.968 311.9 12.5 308 24.5
2008-07-16 08:00:03 51°18.771 2°39.946 312.2 12.5 306 24.2
2008-07-16 08:00:08 51°18.782 2°39.924 311.7 12.5 307 24.3
2008-07-16 08:00:13 51°18.792 2°39.902 311.7 12.5 308 24
2008-07-16 08:00:18 51°18.803 2°39.88 312.3 12.6 307 23.9
2008-07-16 08:00:23 51°18.813 2°39.858 312 12.5 308 24
2008-07-16 08:00:28 51°18.824 2°39.836 312.5 12.5 309 24.2
2008-07-16 08:00:33 51°18.835 2°39.815 313.4 12.4 310 24.1
2008-07-16 08:00:38 51°18.846 2°39.794 314.1 12.4 309 24.1
2008-07-16 08:00:43 51°18.858 2°39.773 314.6 12.4 310 24.2
2008-07-16 08:00:48 51°18.868 2°39.751 314.5 12.5 308 24.2
2008-07-16 08:00:53 51°18.879 2°39.73 313.9 12.5 311 24.3
2008-07-16 08:00:58 51°18.89 2°39.709 314.3 12.5 310 24.3
2008-07-16 08:01:03 51°18.901 2°39.688 314.8 12.5 309 24.4
2008-07-16 08:01:08 51°18.913 2°39.667 314.6 12.5 310 24.3
2008-07-16 08:01:13 51°18.924 2°39.646 314.5 12.4 310 24.4
2008-07-16 08:01:18 51°18.935 2°39.625 314.8 12.5 310 24.5
2008-07-16 08:01:23 51°18.946 2°39.603 314.9 12.5 310 24.6
2008-07-16 08:01:28 51°18.957 2°39.582 314.8 12.4 311 24.7
2008-07-16 08:01:33 51°18.968 2°39.561 315.1 12.4 310 24.7
2008-07-16 08:01:38 51°18.979 2°39.54 315.1 12.4 310 24.9
2008-07-16 08:01:43 51°18.991 2°39.519 314.7 12.4 310 25.1
2008-07-16 08:01:48 51°19.002 2°39.498 314.9 12.4 309 25.3
2008-07-16 08:01:53 51°19.013 2°39.477 314.8 12.4 310 25.5
2008-07-16 08:01:58 51°19.023 2°39.456 314.5 12.4 309 25.7
2008-07-16 08:02:03 51°19.035 2°39.435 314.3 12.4 310 26
2008-07-16 08:02:08 51°19.045 2°39.413 314.8 12.4 308 26.1
2008-07-16 08:02:13 51°19.056 2°39.392 314.2 12.4 309 26.2
2008-07-16 08:02:18 51°19.067 2°39.371 314.2 12.4 308 26.5
2008-07-16 08:02:23 51°19.078 2°39.349 314 12.4 309 26.5
2008-07-16 08:02:28 51°19.089 2°39.328 314.2 12.4 308 26.9
2008-07-16 08:02:33 51°19.099 2°39.306 314.1 12.4 307 26.9
2008-07-16 08:02:38 51°19.109 2°39.284 312.9 12.4 307 27.2
2008-07-16 08:02:43 51°19.119 2°39.262 312.2 12.4 306 27.3
2008-07-16 08:02:48 51°19.129 2°39.239 311.6 12.4 306 27.4
2008-07-16 08:02:53 51°19.139 2°39.217 311.3 12.4 306 27.7
2008-07-16 08:02:58 51°19.149 2°39.195 311 12.4 306 27.9
2008-07-16 08:03:03 51°19.159 2°39.172 311 12.4 306 28.2
2008-07-16 08:03:08 51°19.169 2°39.15 310.8 12.4 305 28.3
2008-07-16 08:03:13 51°19.179 2°39.128 310.9 12.4 306 28.4
2008-07-16 08:03:18 51°19.19 2°39.105 311.1 12.4 306 28.4
2008-07-16 08:03:23 51°19.2 2°39.083 311.3 12.4 306 28.5
2008-07-16 08:03:28 51°19.21 2°39.061 311.3 12.4 306 28.4
2008-07-16 08:03:33 51°19.22 2°39.039 311.5 12.4 305 28.4
2008-07-16 08:03:38 51°19.23 2°39.017 311.4 12.4 307 28.5
2008-07-16 08:03:43 51°19.24 2°38.994 311.9 12.4 306 28.4
2008-07-16 08:03:48 51°19.251 2°38.972 312 12.4 307 28.4
2008-07-16 08:03:53 51°19.261 2°38.95 312.3 12.4 307 28.5
2008-07-16 08:03:58 51°19.271 2°38.928 312.4 12.4 306 28.4
2008-07-16 08:04:03 51°19.281 2°38.906 312.2 12.4 306 28.5
2008-07-16 08:04:08 51°19.292 2°38.884 311.9 12.4 306 28.5
2008-07-16 08:04:13 51°19.302 2°38.862 311.9 12.4 308 28.4
2008-07-16 08:04:18 51°19.312 2°38.84 312.7 12.5 306 28.4
2008-07-16 08:04:23 51°19.323 2°38.818 312.1 12.4 306 28.1
2008-07-16 08:04:28 51°19.333 2°38.796 311.6 12.4 307 28.1
2008-07-16 08:04:33 51°19.343 2°38.774 312 12.4 306 27.9
2008-07-16 08:04:38 51°19.353 2°38.752 311.9 12.4 307 27.9
2008-07-16 08:04:43 51°19.364 2°38.73 312.2 12.4 306 27.6
2008-07-16 08:04:48 51°19.374 2°38.708 312.3 12.4 307 27.6
2008-07-16 08:04:53 51°19.384 2°38.685 312.3 12.4 306 27.2
2008-07-16 08:04:58 51°19.394 2°38.664 311.9 12.4 306 27
2008-07-16 08:05:03 51°19.404 2°38.642 311.8 12.4 306 26.8
2008-07-16 08:05:08 51°19.415 2°38.62 312 12.4 307 26.5
2008-07-16 08:05:13 51°19.425 2°38.598 312.6 12.4 306 26.1
2008-07-16 08:05:19 51°19.437 2°38.571 312 12.4 307 25.9
2008-07-16 08:05:23 51°19.446 2°38.554 312.4 12.3 307 25.6
2008-07-16 08:05:28 51°19.456 2°38.532 312.3 12.3 307 25.4
2008-07-16 08:05:33 51°19.466 2°38.51 312.4 12.3 307 25.1
2008-07-16 08:05:38 51°19.477 2°38.489 312 12.3 308 24.9
2008-07-16 08:05:43 51°19.487 2°38.467 312.5 12.3 306 24.7
2008-07-16 08:05:48 51°19.497 2°38.445 312.3 12.3 307 24.6
2008-07-16 08:05:53 51°19.507 2°38.423 312 12.3 306 24.5
2008-07-16 08:05:58 51°19.518 2°38.402 311.9 12.3 308 24.2
2008-07-16 08:06:03 51°19.528 2°38.379 312.6 12.3 307 22.8
2008-07-16 08:06:08 51°19.538 2°38.358 312.6 12.3 308 22.9
2008-07-16 08:06:13 51°19.549 2°38.337 312.9 12.3 308 23.5
2008-07-16 08:06:18 51°19.559 2°38.315 313 12.3 308 23.6
2008-07-16 08:06:23 51°19.57 2°38.294 313.3 12.3 308 23.2
2008-07-16 08:06:28 51°19.58 2°38.272 313.3 12.3 307 23.2
2008-07-16 08:06:33 51°19.591 2°38.25 312.7 12.3 308 22.8
2008-07-16 08:06:38 51°19.601 2°38.229 312.9 12.3 308 23
2008-07-16 08:06:43 51°19.611 2°38.207 313 12.3 307 23.1
2008-07-16 08:06:48 51°19.622 2°38.185 312.7 12.3 308 23.1
2008-07-16 08:06:53 51°19.632 2°38.164 312.8 12.3 307 21.9
2008-07-16 08:06:58 51°19.643 2°38.142 312.7 12.3 307 22.1
2008-07-16 08:07:03 51°19.653 2°38.12 312.5 12.3 307 22.1
2008-07-16 08:07:08 51°19.663 2°38.099 312.4 12.3 308 22
2008-07-16 08:07:13 51°19.673 2°38.077 312.9 12.3 307 20.6
2008-07-16 08:07:19 51°19.686 2°38.051 312.8 12.3 308 21.7
2008-07-16 08:07:23 51°19.694 2°38.033 313.3 12.3 307 22.3
2008-07-16 08:07:28 51°19.704 2°38.012 313.1 12.3 308 22.8
2008-07-16 08:07:33 51°19.715 2°37.99 312.8 12.3 307 22.9
2008-07-16 08:07:38 51°19.725 2°37.968 312.7 12.3 308 22.8
2008-07-16 08:07:43 51°19.736 2°37.947 312.8 12.3 307 22.4
2008-07-16 08:07:48 51°19.746 2°37.925 312.8 12.3 307 21.4
2008-07-16 08:07:53 51°19.756 2°37.903 312.7 12.4 307 22.3
2008-07-16 08:07:58 51°19.767 2°37.882 312.4 12.3 308 21.8
2008-07-16 08:08:03 51°19.777 2°37.86 312.9 12.3 308 21
2008-07-16 08:08:08 51°19.788 2°37.839 313.1 12.3 308 21.3
2008-07-16 08:08:13 51°19.798 2°37.817 313.4 12.3 308 20.5
2008-07-16 08:08:18 51°19.808 2°37.795 313.1 12.3 307 20.2
2008-07-16 08:08:23 51°19.819 2°37.773 312.7 12.4 307 21.1
2008-07-16 08:08:28 51°19.828 2°37.75 311.7 12.4 304 21.5
2008-07-16 08:08:33 51°19.838 2°37.728 310.8 12.4 306 22.2
2008-07-16 08:08:38 51°19.848 2°37.705 310.2 12.4 302 22
2008-07-16 08:08:43 51°19.857 2°37.683 309.1 12.1 304 22.3
2008-07-16 08:08:48 51°19.866 2°37.66 308.7 12.1 302 22.7
2008-07-16 08:08:53 51°19.875 2°37.638 308.3 12 302 22.7
2008-07-16 08:08:58 51°19.883 2°37.615 307.6 12 301 23
2008-07-16 08:09:03 51°19.891 2°37.593 306.9 11.4 301 23.1
2008-07-16 08:09:08 51°19.899 2°37.572 306.3 10.9 299 22.8
2008-07-16 08:09:13 51°19.906 2°37.552 305.1 10.3 299 23
2008-07-16 08:09:18 51°19.912 2°37.532 304.9 9.9 299 22.7
2008-07-16 08:09:23 51°19.919 2°37.514 304.9 9.6 298 22.8
2008-07-16 08:09:28 51°19.925 2°37.496 305.1 9.4 299 23
2008-07-16 08:09:33 51°19.931 2°37.478 305.3 9.1 299 23.1
2008-07-16 08:09:39 51°19.938 2°37.457 305.3 8.9 299 23
2008-07-16 08:09:43 51°19.943 2°37.444 305.7 8.7 298 22.2
2008-07-16 08:09:48 51°19.949 2°37.427 305.9 8.6 299 21.2
2008-07-16 08:09:53 51°19.954 2°37.41 305.8 8.5 299 22.2
2008-07-16 08:09:58 51°19.96 2°37.394 306 8.4 300 22.7
2008-07-16 08:10:03 51°19.966 2°37.378 306.7 8.4 300 22.7
2008-07-16 08:10:08 51°19.971 2°37.362 306.7 8.3 299 22.9
2008-07-16 08:10:13 51°19.977 2°37.346 306.8 8.3 299 22.9
2008-07-16 08:10:18 51°19.983 2°37.33 306.7 8.2 299 23
2008-07-16 08:10:23 51°19.988 2°37.314 306.4 8.2 299 22.8
2008-07-16 08:10:28 51°19.993 2°37.299 306.1 8.1 298 22.3
2008-07-16 08:10:33 51°19.998 2°37.283 305.4 8.2 296 21.3
2008-07-16 08:10:38 51°20.003 2°37.266 304.2 8.1 295 21
2008-07-16 08:10:43 51°20.008 2°37.249 303.1 8.1 293 21.4
2008-07-16 08:10:48 51°20.012 2°37.233 301.1 8.1 291 22
2008-07-16 08:10:53 51°20.016 2°37.216 299.5 8.1 291 22.3
2008-07-16 08:10:58 51°20.019 2°37.198 298.2 8.2 289 22.2
2008-07-16 08:11:03 51°20.023 2°37.181 296.6 8.2 290 22.5
2008-07-16 08:11:08 51°20.027 2°37.164 296.2 8.2 289 22.3
2008-07-16 08:11:13 51°20.031 2°37.148 296.4 8 289 22.4
2008-07-16 08:11:18 51°20.034 2°37.132 296.8 7.5 290 22.6
2008-07-16 08:11:23 51°20.037 2°37.117 297.2 7.1 289 22.4
2008-07-16 08:11:28 51°20.041 2°37.103 297.6 6.7 289 22.1
2008-07-16 08:11:33 51°20.044 2°37.09 298 6.4 290 21.5
2008-07-16 08:11:39 51°20.047 2°37.075 298.8 6 289 20.6
2008-07-16 08:11:43 51°20.049 2°37.065 300 5.8 290 20.1
2008-07-16 08:11:48 51°20.052 2°37.053 301.1 5.6 290 20.9
2008-07-16 08:11:53 51°20.055 2°37.043 302.3 5.4 292 21.9
2008-07-16 08:11:58 51°20.057 2°37.032 303.7 5.2 292 22.3
2008-07-16 08:12:03 51°20.06 2°37.022 304.9 4.9 293 22.2
2008-07-16 08:12:08 51°20.063 2°37.012 306.2 4.7 293 21.3
2008-07-16 08:12:13 51°20.065 2°37.003 307.8 4.5 295 20.7
2008-07-16 08:12:18 51°20.068 2°36.995 309.1 4.4 295 21.4
2008-07-16 08:12:23 51°20.071 2°36.986 311 4.2 298 22
2008-07-16 08:12:28 51°20.073 2°36.978 312.7 4.1 298 22.5
2008-07-16 08:12:33 51°20.076 2°36.971 314 3.9 299 23.1